createdAt,value
2019-05-05T00:00:57.108Z,21.02
2019-05-05T00:03:47.773Z,20.91
2019-05-05T00:06:20.528Z,21.12
2019-05-05T00:08:54.590Z,20.96
2019-05-05T00:11:39.650Z,21.10
2019-05-05T00:14:35.076Z,21.19
2019-05-05T00:17:15.631Z,21.01
2019-05-05T00:19:47.511Z,20.33
2019-05-05T00:22:19.787Z,20.38
2019-05-05T00:24:54.608Z,20.57
2019-05-05T00:27:26.780Z,20.57
2019-05-05T00:29:58.479Z,20.32
2019-05-05T00:32:30.308Z,20.37
2019-05-05T00:35:04.333Z,20.03
2019-05-05T00:37:36.522Z,20.13
2019-05-05T00:40:09.502Z,20.16
2019-05-05T00:42:41.934Z,20.02
2019-05-05T00:45:14.807Z,20.19
2019-05-05T00:47:54.937Z,20.01
2019-05-05T00:50:27.277Z,20.01
2019-05-05T00:52:59.186Z,20.25
2019-05-05T00:55:31.508Z,20.76
2019-05-05T00:58:05.127Z,21.10
2019-05-05T01:00:51.442Z,20.73
2019-05-05T01:03:25.029Z,20.85
2019-05-05T01:06:11.948Z,21.25
2019-05-05T01:08:44.664Z,21.25
2019-05-05T01:11:17.833Z,21.80
2019-05-05T01:13:50.034Z,21.23
2019-05-05T01:16:21.867Z,20.79
2019-05-05T01:18:55.394Z,20.79
2019-05-05T01:21:27.640Z,20.90
2019-05-05T01:23:59.318Z,20.31
2019-05-05T01:26:31.292Z,20.31
2019-05-05T01:29:05.195Z,20.09
2019-05-05T01:31:37.618Z,20.09
2019-05-05T01:34:44.428Z,20.45
2019-05-05T01:37:25.449Z,21.28
2019-05-05T01:40:04.956Z,19.75
2019-05-05T01:42:37.188Z,19.75
2019-05-05T01:45:09.229Z,19.47
2019-05-05T01:47:41.349Z,19.47
2019-05-05T01:50:18.244Z,18.65
2019-05-05T01:52:47.108Z,18.65
2019-05-05T01:55:18.823Z,18.62
2019-05-05T01:57:50.832Z,18.62
2019-05-05T02:00:25.364Z,18.36
2019-05-05T02:02:58.706Z,17.98
2019-05-05T02:05:30.880Z,18.31
2019-05-05T02:08:04.993Z,18.31
2019-05-05T02:10:38.347Z,18.43
2019-05-05T02:13:10.630Z,18.43
2019-05-05T02:15:44.486Z,17.72
2019-05-05T02:18:16.471Z,18.59
2019-05-05T02:21:02.174Z,18.53
2019-05-05T02:23:35.109Z,18.53
2019-05-05T02:26:07.895Z,18.18
2019-05-05T02:29:17.220Z,18.22
2019-05-05T02:32:06.899Z,17.60
2019-05-05T02:34:45.679Z,17.60
2019-05-05T02:37:17.303Z,17.77
2019-05-05T02:39:57.698Z,17.84
2019-05-05T02:42:26.418Z,17.84
2019-05-05T02:45:05.515Z,18.01
2019-05-05T02:47:57.071Z,18.03
2019-05-05T02:51:02.306Z,18.24
2019-05-05T02:53:36.830Z,18.37
2019-05-05T02:56:15.450Z,18.81
2019-05-05T02:58:48.980Z,18.31
2019-05-05T03:01:35.500Z,18.31
2019-05-05T03:04:08.813Z,18.38
2019-05-05T03:06:44.895Z,18.31
2019-05-05T03:09:19.935Z,17.92
2019-05-05T03:11:54.857Z,17.63
2019-05-05T03:14:30.215Z,17.48
2019-05-05T03:17:04.630Z,17.76
2019-05-05T03:19:36.806Z,17.76
2019-05-05T03:22:08.881Z,17.63
2019-05-05T03:24:41.098Z,18.17
2019-05-05T03:27:14.293Z,18.17
2019-05-05T03:29:47.554Z,17.71
2019-05-05T03:32:19.845Z,17.79
2019-05-05T03:34:53.689Z,17.54
2019-05-05T03:37:25.607Z,17.25
2019-05-05T03:40:04.323Z,17.16
2019-05-05T03:42:44.326Z,16.97
2019-05-05T03:45:30.892Z,16.64
2019-05-05T03:48:04.633Z,16.64
2019-05-05T03:50:37.716Z,16.03
2019-05-05T03:53:09.927Z,16.15
2019-05-05T03:55:43.916Z,15.20
2019-05-05T03:58:16.088Z,15.20
2019-05-05T04:02:01.449Z,16.94
2019-05-05T04:04:38.015Z,16.94
2019-05-05T04:07:10.235Z,17.05
2019-05-05T04:09:43.769Z,15.70
2019-05-05T04:12:15.628Z,14.83
2019-05-05T04:14:48.165Z,15.53
2019-05-05T04:17:37.590Z,15.31
2019-05-05T04:20:28.705Z,14.75
2019-05-05T04:23:00.831Z,14.06
2019-05-05T04:25:34.766Z,14.04
2019-05-05T04:28:06.806Z,14.74
2019-05-05T04:30:38.297Z,14.74
2019-05-05T04:33:09.865Z,13.87
2019-05-05T04:35:41.760Z,14.44
2019-05-05T04:38:13.873Z,13.65
2019-05-05T04:40:45.921Z,13.41
2019-05-05T04:43:17.555Z,13.31
2019-05-05T04:45:49.189Z,13.64
2019-05-05T04:48:28.555Z,13.71
2019-05-05T04:51:06.425Z,13.61
2019-05-05T04:53:57.058Z,13.75
2019-05-05T04:56:30.075Z,13.40
2019-05-05T04:59:04.003Z,13.40
2019-05-05T05:01:36.337Z,13.82
2019-05-05T05:04:24.190Z,14.79
2019-05-05T05:06:57.667Z,13.69
2019-05-05T05:09:30.865Z,15.11
2019-05-05T05:12:04.063Z,14.36
2019-05-05T05:14:35.637Z,12.04
2019-05-05T05:17:13.966Z,13.78
2019-05-05T05:19:45.648Z,14.77
2019-05-05T05:22:17.351Z,14.39
2019-05-05T05:24:48.968Z,14.80
2019-05-05T05:27:21.018Z,14.80
2019-05-05T05:29:54.374Z,13.47
2019-05-05T05:32:27.739Z,12.89
2019-05-05T05:34:59.737Z,12.98
2019-05-05T05:37:34.151Z,15.37
2019-05-05T05:40:14.491Z,13.12
2019-05-05T05:42:46.396Z,13.63
2019-05-05T05:45:35.922Z,15.15
2019-05-05T05:48:25.597Z,14.99
2019-05-05T05:51:00.764Z,14.39
2019-05-05T05:53:32.437Z,14.39
2019-05-05T05:56:04.501Z,14.24
2019-05-05T05:58:36.164Z,14.33
2019-05-05T06:01:07.980Z,14.33
2019-05-05T06:03:39.442Z,19.32
2019-05-05T06:06:11.246Z,19.32
2019-05-05T06:08:43.974Z,23.73
2019-05-05T06:11:16.772Z,23.73
2019-05-05T06:13:48.448Z,27.72
2019-05-05T06:16:20.279Z,27.72
2019-05-05T06:18:54.138Z,29.94
2019-05-05T06:21:29.209Z,25.56
2019-05-05T06:24:01.672Z,26.56
2019-05-05T06:26:34.268Z,20.30
2019-05-05T06:29:06.331Z,27.67
2019-05-05T06:31:37.854Z,24.08
2019-05-05T06:34:09.784Z,24.08
2019-05-05T06:36:41.439Z,17.87
2019-05-05T06:39:13.782Z,12.90
2019-05-05T06:42:00.551Z,11.79
2019-05-05T06:44:45.864Z,11.79
2019-05-05T06:47:20.939Z,13.01
2019-05-05T06:49:54.194Z,15.79
2019-05-05T06:52:40.925Z,14.78
2019-05-05T06:55:00.386Z,12.23
2019-05-05T06:57:34.296Z,12.36
2019-05-05T07:00:07.531Z,12.36
2019-05-05T07:02:39.229Z,17.87
2019-05-05T07:05:11.381Z,17.87
2019-05-05T07:07:43.612Z,17.73
2019-05-05T07:10:15.644Z,17.73
2019-05-05T07:12:47.117Z,17.05
2019-05-05T07:15:18.892Z,12.19
2019-05-05T07:17:50.482Z,10.38
2019-05-05T07:20:24.018Z,10.38
2019-05-05T07:23:01.396Z,13.88
2019-05-05T07:25:39.903Z,16.49
2019-05-05T07:28:04.239Z,17.73
2019-05-05T07:30:36.206Z,12.76
2019-05-05T07:33:07.859Z,17.34
2019-05-05T07:36:14.544Z,22.73
2019-05-05T07:38:47.989Z,22.73
2019-05-05T07:41:19.949Z,23.03
2019-05-05T07:43:51.570Z,21.63
2019-05-05T07:46:24.080Z,18.76
2019-05-05T07:48:55.899Z,21.09
2019-05-05T07:51:27.849Z,22.33
2019-05-05T07:53:59.560Z,15.42
2019-05-05T07:56:31.444Z,15.42
2019-05-05T07:59:03.767Z,18.01
2019-05-05T08:01:36.022Z,15.22
2019-05-05T08:04:10.955Z,15.22
2019-05-05T08:06:44.525Z,17.22
2019-05-05T08:09:16.059Z,14.40
2019-05-05T08:11:48.101Z,16.87
2019-05-05T08:14:19.789Z,15.57
2019-05-05T08:17:01.439Z,13.53
2019-05-05T08:19:46.694Z,13.53
2019-05-05T08:22:18.312Z,13.92
2019-05-05T08:25:15.192Z,14.00
2019-05-05T08:28:14.885Z,13.57
2019-05-05T08:30:55.724Z,14.96
2019-05-05T08:33:27.657Z,10.26
2019-05-05T08:35:59.440Z,10.26
2019-05-05T08:38:31.165Z,11.47
2019-05-05T08:41:04.547Z,10.81
2019-05-05T08:43:36.271Z,10.60
2019-05-05T08:46:08.394Z,13.24
2019-05-05T08:48:40.132Z,10.15
2019-05-05T08:51:13.926Z,10.15
2019-05-05T08:53:48.223Z,9.77
2019-05-05T08:56:18.769Z,11.91
2019-05-05T08:58:50.363Z,11.91
2019-05-05T09:01:23.782Z,11.10
2019-05-05T09:03:55.251Z,13.04
2019-05-05T09:06:26.924Z,17.34
2019-05-05T09:08:58.713Z,17.34
2019-05-05T09:11:30.291Z,21.04
2019-05-05T09:14:04.024Z,17.87
2019-05-05T09:16:35.507Z,13.46
2019-05-05T09:19:14.527Z,12.19
2019-05-05T09:21:45.379Z,12.19
2019-05-05T09:24:24.939Z,16.50
2019-05-05T09:27:19.130Z,16.35
2019-05-05T09:29:51.019Z,16.24
2019-05-05T09:32:24.297Z,16.53
2019-05-05T09:35:04.761Z,16.53
2019-05-05T09:37:37.859Z,13.86
2019-05-05T09:40:09.701Z,13.90
2019-05-05T09:42:40.973Z,15.35
2019-05-05T09:45:15.217Z,12.37
2019-05-05T09:47:46.646Z,12.73
2019-05-05T09:50:17.954Z,22.22
2019-05-05T09:52:49.232Z,24.30
2019-05-05T09:55:20.624Z,22.20
2019-05-05T09:57:54.004Z,19.46
2019-05-05T10:00:25.613Z,16.11
2019-05-05T10:02:57.220Z,14.22
2019-05-05T10:05:29.143Z,14.22
2019-05-05T10:08:00.824Z,14.40
2019-05-05T10:10:33.716Z,14.70
2019-05-05T10:13:06.888Z,13.87
2019-05-05T10:15:38.699Z,15.69
2019-05-05T10:18:10.876Z,15.27
2019-05-05T10:20:42.729Z,14.88
2019-05-05T10:23:14.983Z,14.58
2019-05-05T10:25:49.815Z,14.45
2019-05-05T10:28:23.956Z,14.18
2019-05-05T10:30:55.659Z,13.94
2019-05-05T10:33:29.164Z,14.09
2019-05-05T10:36:00.955Z,14.06
2019-05-05T10:38:34.105Z,14.84
2019-05-05T10:41:05.935Z,16.73
2019-05-05T10:43:37.637Z,17.68
2019-05-05T10:46:09.227Z,15.33
2019-05-05T10:48:40.884Z,15.33
2019-05-05T10:51:12.604Z,15.78
2019-05-05T10:53:44.624Z,17.27
2019-05-05T10:56:16.375Z,15.41
2019-05-05T10:58:48.026Z,15.14
2019-05-05T11:01:21.245Z,14.18
2019-05-05T11:03:53.148Z,16.43
2019-05-05T11:06:25.462Z,14.46
2019-05-05T11:08:57.431Z,14.46
2019-05-05T11:11:29.367Z,13.59
2019-05-05T11:14:03.645Z,14.52
2019-05-05T11:16:36.050Z,15.62
2019-05-05T11:19:08.294Z,14.93
2019-05-05T11:21:39.850Z,14.93
2019-05-05T11:24:11.825Z,15.32
2019-05-05T11:26:44.551Z,14.89
2019-05-05T11:29:16.207Z,19.64
2019-05-05T11:31:48.467Z,14.10
2019-05-05T11:34:26.738Z,14.10
2019-05-05T11:37:10.423Z,13.00
2019-05-05T11:39:41.911Z,13.00
2019-05-05T11:42:14.634Z,12.71
2019-05-05T11:44:47.503Z,17.77
2019-05-05T11:47:19.695Z,13.95
2019-05-05T11:49:54.535Z,13.76
2019-05-05T11:52:24.963Z,12.41
2019-05-05T11:55:08.842Z,12.39
2019-05-05T11:57:29.674Z,12.70
2019-05-05T12:00:03.723Z,12.30
2019-05-05T12:02:35.755Z,11.78
2019-05-05T12:05:07.530Z,12.38
2019-05-05T12:07:39.987Z,12.99
2019-05-05T12:10:31.723Z,11.87
2019-05-05T12:13:04.914Z,12.10
2019-05-05T12:15:36.679Z,12.55
2019-05-05T12:18:08.446Z,12.35
2019-05-05T12:20:40.595Z,12.68
2019-05-05T12:23:12.168Z,12.77
2019-05-05T12:25:56.892Z,12.77
2019-05-05T12:28:44.699Z,13.79
2019-05-05T12:31:21.335Z,12.71
2019-05-05T12:33:54.834Z,12.99
2019-05-05T12:36:26.833Z,12.90
2019-05-05T12:38:58.645Z,12.47
2019-05-05T12:41:30.407Z,13.06
2019-05-05T12:44:04.475Z,13.06
2019-05-05T12:46:52.316Z,12.73
2019-05-05T12:49:25.476Z,12.73
2019-05-05T12:51:57.170Z,13.22
2019-05-05T12:54:29.127Z,13.13
2019-05-05T12:57:00.770Z,13.61
2019-05-05T12:59:33.883Z,12.96
2019-05-05T13:02:06.636Z,13.27
2019-05-05T13:04:38.551Z,13.07
2019-05-05T13:07:10.380Z,13.46
2019-05-05T13:09:44.055Z,13.33
2019-05-05T13:12:15.838Z,14.16
2019-05-05T13:14:47.777Z,14.16
2019-05-05T13:17:20.024Z,14.15
2019-05-05T13:20:00.417Z,14.15
2019-05-05T13:22:44.334Z,14.10
2019-05-05T13:26:00.063Z,14.87
2019-05-05T13:28:31.960Z,14.75
2019-05-05T13:31:04.698Z,14.56
2019-05-05T13:33:37.707Z,15.23
2019-05-05T13:36:09.491Z,17.05
2019-05-05T13:38:41.056Z,20.04
2019-05-05T13:41:13.054Z,22.32
2019-05-05T13:43:44.926Z,23.82
2019-05-05T13:46:28.479Z,23.82
2019-05-05T13:49:17.759Z,26.68
2019-05-05T13:51:49.563Z,26.68
2019-05-05T13:54:21.296Z,27.49
2019-05-05T13:56:54.427Z,26.04
2019-05-05T13:59:26.402Z,26.04
2019-05-05T14:01:59.689Z,27.83
2019-05-05T14:04:31.890Z,28.19
2019-05-05T14:07:04.245Z,28.70
2019-05-05T14:09:35.922Z,28.86
2019-05-05T14:12:07.940Z,22.85
2019-05-05T14:14:39.787Z,22.85
2019-05-05T14:17:11.616Z,24.68
2019-05-05T14:19:44.543Z,25.27
2019-05-05T14:22:16.350Z,25.27
2019-05-05T14:24:55.602Z,24.40
2019-05-05T14:27:27.584Z,23.77
2019-05-05T14:30:18.282Z,22.92
2019-05-05T14:32:50.627Z,21.73
2019-05-05T14:35:47.253Z,21.73
2019-05-05T14:38:27.068Z,20.77
2019-05-05T14:40:58.686Z,19.58
2019-05-05T14:43:31.345Z,20.22
2019-05-05T14:46:03.658Z,20.41
2019-05-05T14:48:37.124Z,20.41
2019-05-05T14:51:08.462Z,20.29
2019-05-05T14:53:40.021Z,20.41
2019-05-05T14:56:13.441Z,21.18
2019-05-05T14:58:45.252Z,21.67
2019-05-05T15:01:16.960Z,21.42
2019-05-05T15:03:48.809Z,20.77
2019-05-05T15:06:39.146Z,20.79
2019-05-05T15:09:30.055Z,22.15
2019-05-05T15:12:19.000Z,20.73
2019-05-05T15:14:50.860Z,20.73
2019-05-05T15:17:24.489Z,20.11
2019-05-05T15:19:56.398Z,20.11
2019-05-05T15:22:28.544Z,23.16
2019-05-05T15:25:00.500Z,21.20
2019-05-05T15:27:34.729Z,22.73
2019-05-05T15:30:06.812Z,22.73
2019-05-05T15:32:38.374Z,23.54
2019-05-05T15:35:10.640Z,23.54
2019-05-05T15:37:43.670Z,26.59
2019-05-05T15:40:16.032Z,26.59
2019-05-05T15:42:48.023Z,31.03
2019-05-05T15:45:20.773Z,26.40
2019-05-05T15:47:54.037Z,26.40
2019-05-05T15:50:27.762Z,24.31
2019-05-05T15:52:59.143Z,23.73
2019-05-05T15:55:31.078Z,28.04
2019-05-05T15:58:03.557Z,30.93
2019-05-05T16:00:35.519Z,29.78
2019-05-05T16:03:07.431Z,25.62
2019-05-05T16:05:39.418Z,24.81
2019-05-05T16:08:11.067Z,24.58
2019-05-05T16:10:46.326Z,24.50
2019-05-05T16:13:17.062Z,24.44
2019-05-05T16:16:05.924Z,24.72
2019-05-05T16:19:08.560Z,24.06
2019-05-05T16:21:47.755Z,24.06
2019-05-05T16:24:24.844Z,24.33
2019-05-05T16:26:57.047Z,24.33
2019-05-05T16:29:28.638Z,24.55
2019-05-05T16:32:00.190Z,24.48
2019-05-05T16:34:33.613Z,24.53
2019-05-05T16:37:05.346Z,24.94
2019-05-05T16:39:37.064Z,25.02
2019-05-05T16:42:09.330Z,24.97
2019-05-05T16:44:40.976Z,24.58
2019-05-05T16:47:13.664Z,24.58
2019-05-05T16:49:45.440Z,24.86
2019-05-05T16:52:23.944Z,24.74
2019-05-05T16:55:06.016Z,24.95
2019-05-05T16:57:37.845Z,25.10
2019-05-05T17:00:09.736Z,24.57
2019-05-05T17:02:41.334Z,24.57
2019-05-05T17:05:13.690Z,24.53
2019-05-05T17:07:45.579Z,24.36
2019-05-05T17:10:17.604Z,24.83
2019-05-05T17:12:49.133Z,25.27
2019-05-05T17:15:58.246Z,25.22
2019-05-05T17:18:45.290Z,25.26
2019-05-05T17:21:38.618Z,25.20
2019-05-05T17:24:10.135Z,24.99
2019-05-05T17:26:49.092Z,25.50
2019-05-05T17:29:24.115Z,25.30
2019-05-05T17:32:02.132Z,25.24
2019-05-05T17:34:34.997Z,24.67
2019-05-05T17:37:06.685Z,24.62
2019-05-05T17:39:43.739Z,24.55
2019-05-05T17:42:34.761Z,24.33
2019-05-05T17:45:25.362Z,24.33
2019-05-05T17:48:11.927Z,24.46
2019-05-05T17:50:58.365Z,24.46
2019-05-05T17:53:43.755Z,24.46
2019-05-05T17:56:15.168Z,24.51
2019-05-05T17:58:49.831Z,24.51
2019-05-05T18:01:21.076Z,24.05
2019-05-05T18:03:54.630Z,22.72
2019-05-05T18:06:56.625Z,22.42
2019-05-05T18:10:00.051Z,22.42
2019-05-05T18:13:03.506Z,22.43
2019-05-05T18:15:54.493Z,22.73
2019-05-05T18:18:35.371Z,22.01
2019-05-05T18:21:11.688Z,21.66
2019-05-05T18:23:44.629Z,21.21
2019-05-05T18:26:15.865Z,21.21
2019-05-05T18:28:48.147Z,21.51
2019-05-05T18:31:20.018Z,21.02
2019-05-05T18:33:51.829Z,20.82
2019-05-05T18:36:25.148Z,20.82
2019-05-05T18:38:56.518Z,20.45
2019-05-05T18:41:36.599Z,19.95
2019-05-05T18:44:46.732Z,20.72
2019-05-05T18:47:33.904Z,20.44
2019-05-05T18:50:05.650Z,20.04
2019-05-05T18:52:37.662Z,19.75
2019-05-05T18:55:09.475Z,19.84
2019-05-05T18:57:43.502Z,19.56
2019-05-05T19:00:17.429Z,19.21
2019-05-05T19:03:17.744Z,19.27
2019-05-05T19:05:53.547Z,19.07
2019-05-05T19:08:54.192Z,19.19
2019-05-05T19:11:24.570Z,18.99
2019-05-05T19:13:57.618Z,18.99
2019-05-05T19:16:29.668Z,18.92
2019-05-05T19:19:03.633Z,18.81
2019-05-05T19:21:59.073Z,18.89
2019-05-05T19:24:35.399Z,18.89
2019-05-05T19:27:07.478Z,18.78
2019-05-05T19:29:44.171Z,19.25
2019-05-05T19:32:20.910Z,18.56
2019-05-05T19:35:07.149Z,18.56
2019-05-05T19:37:45.436Z,17.99
2019-05-05T19:40:17.959Z,17.96
2019-05-05T19:42:53.853Z,17.60
2019-05-05T19:45:38.533Z,17.89
2019-05-05T19:48:10.400Z,17.89
2019-05-05T19:50:54.206Z,18.33
2019-05-05T19:53:27.406Z,18.21
2019-05-05T19:55:59.465Z,17.81
2019-05-05T19:58:31.284Z,17.74
2019-05-05T20:01:16.038Z,17.74
2019-05-05T20:03:49.858Z,18.00
2019-05-05T20:06:21.380Z,18.12
2019-05-05T20:08:54.938Z,18.12
2019-05-05T20:11:29.807Z,18.53
2019-05-05T20:14:07.512Z,18.84
2019-05-05T20:16:54.740Z,17.79
2019-05-05T20:19:28.001Z,17.82
2019-05-05T20:22:01.843Z,17.70
2019-05-05T20:24:35.659Z,17.85
2019-05-05T20:27:07.587Z,17.82
2019-05-05T20:29:42.599Z,17.82
2019-05-05T20:32:15.005Z,17.08
2019-05-05T20:35:04.091Z,17.08
2019-05-05T20:37:50.911Z,16.97
2019-05-05T20:40:25.367Z,16.99
2019-05-05T20:42:57.159Z,16.77
2019-05-05T20:45:30.560Z,16.77
2019-05-05T20:48:26.128Z,16.94
2019-05-05T20:50:58.700Z,17.26
2019-05-05T20:53:31.121Z,16.72
2019-05-05T20:56:04.316Z,17.03
2019-05-05T20:58:36.851Z,16.68
2019-05-05T21:01:09.710Z,16.68
2019-05-05T21:03:42.240Z,17.49
2019-05-05T21:06:15.006Z,17.18
2019-05-05T21:08:46.802Z,17.43
2019-05-05T21:11:37.251Z,17.43
2019-05-05T21:14:09.214Z,17.67
2019-05-05T21:16:54.554Z,17.56
2019-05-05T21:19:25.423Z,17.85
2019-05-05T21:21:59.048Z,17.85
2019-05-05T21:24:30.696Z,17.78
2019-05-05T21:27:06.914Z,17.78
2019-05-05T21:29:42.978Z,17.71
2019-05-05T21:32:20.583Z,17.80
2019-05-05T21:34:57.513Z,17.70
2019-05-05T21:37:34.023Z,17.31
2019-05-05T21:40:13.944Z,18.17
2019-05-05T21:42:50.054Z,18.17
2019-05-05T21:45:22.022Z,17.37
2019-05-05T21:47:54.998Z,17.37
2019-05-05T21:50:35.849Z,17.41
2019-05-05T21:53:22.196Z,17.59
2019-05-05T21:56:26.532Z,18.40
2019-05-05T21:59:14.168Z,18.62
2019-05-05T22:01:49.283Z,19.32
2019-05-05T22:04:23.944Z,19.52
2019-05-05T22:06:56.682Z,19.16
2019-05-05T22:09:30.472Z,18.80
2019-05-05T22:12:04.181Z,18.42
2019-05-05T22:14:44.071Z,18.30
2019-05-05T22:17:15.993Z,18.23
2019-05-05T22:20:07.329Z,17.67
2019-05-05T22:22:44.973Z,17.65
2019-05-05T22:25:30.515Z,17.91
2019-05-05T22:28:06.412Z,17.91
2019-05-05T22:30:50.248Z,18.17
2019-05-05T22:33:24.660Z,17.80
2019-05-05T22:35:56.643Z,17.70
2019-05-05T22:38:28.086Z,17.70
2019-05-05T22:41:04.871Z,17.62
2019-05-05T22:43:37.671Z,17.27
2019-05-05T22:46:16.538Z,17.38
2019-05-05T22:48:54.525Z,17.20
2019-05-05T22:51:31.225Z,16.54
2019-05-05T22:54:05.420Z,16.60
2019-05-05T22:56:37.114Z,16.62
2019-05-05T22:59:13.846Z,16.97
2019-05-05T23:01:48.624Z,16.30
2019-05-05T23:04:43.705Z,16.29
2019-05-05T23:07:25.414Z,16.50
2019-05-05T23:09:59.718Z,16.45
2019-05-05T23:12:35.089Z,16.30
2019-05-05T23:15:09.042Z,15.97
2019-05-05T23:17:49.423Z,16.64
2019-05-05T23:21:15.965Z,16.64
2019-05-05T23:23:59.823Z,16.60
2019-05-05T23:26:35.649Z,16.53
2019-05-05T23:29:10.908Z,16.53
2019-05-05T23:31:44.285Z,16.29
2019-05-05T23:34:16.034Z,16.27
2019-05-05T23:36:47.598Z,16.27
2019-05-05T23:39:20.451Z,16.26
2019-05-05T23:41:54.674Z,16.05
2019-05-05T23:44:31.570Z,16.07
2019-05-05T23:47:04.554Z,16.07
2019-05-05T23:49:36.091Z,16.37
2019-05-05T23:52:07.886Z,16.54
2019-05-05T23:54:44.697Z,16.42
2019-05-05T23:57:19.950Z,16.91
2019-05-05T23:59:56.061Z,16.98
